Time;durP1;ratioP1;P1;durP2;ratioP2;P2;SDS_P1;SDS_P2;PMS_P1;PMS_P2;Temp;Humidity;BMP_temperature;BMP_pressure;BME280_temperature;BME280_humidity;BME280_pressure;Samples;Min_cycle;Max_cycle;Signal;HPM_P1;HPM_P2
2022/04/28 00:00:07;;;;;;;6.20;5.90;;;;;;;11.66;100.00;101188.84;5043690;28;20052;-61
2022/04/28 00:02:33;;;;;;;5.90;5.70;;;;;;;11.62;100.00;101191.00;5046533;28;20108;-61
2022/04/28 00:05:00;;;;;;;6.20;5.90;;;;;;;11.53;100.00;101187.53;5054603;28;20116;-60
2022/04/28 00:07:26;;;;;;;5.90;5.70;;;;;;;11.52;100.00;101200.94;5053835;28;20151;-61
2022/04/28 00:09:51;;;;;;;6.35;6.05;;;;;;;11.50;100.00;101193.16;5054996;28;20447;-61
2022/04/28 00:12:18;;;;;;;6.40;6.10;;;;;;;11.53;100.00;101195.50;5054231;28;20104;-61
2022/04/28 00:14:44;;;;;;;6.30;6.00;;;;;;;11.61;100.00;101202.63;5049268;28;20025;-61
2022/04/28 00:17:10;;;;;;;6.05;5.82;;;;;;;11.49;100.00;101195.97;5045361;28;20058;-61
2022/04/28 00:19:36;;;;;;;6.10;5.90;;;;;;;11.62;100.00;101193.66;5053508;28;20051;-61
2022/04/28 00:22:02;;;;;;;6.20;5.90;;;;;;;11.70;100.00;101180.38;5054370;28;20104;-61
2022/04/28 00:24:27;;;;;;;6.03;5.82;;;;;;;11.55;100.00;101182.03;5053470;28;20075;-61
2022/04/28 00:26:53;;;;;;;6.47;6.18;;;;;;;11.51;100.00;101178.84;5051055;28;20108;-61
2022/04/28 00:29:18;;;;;;;6.28;6.00;;;;;;;11.50;100.00;101179.84;5056549;28;20036;-62
2022/04/28 00:31:44;;;;;;;6.25;5.95;;;;;;;11.50;100.00;101179.84;5043762;28;20028;-61
2022/04/28 00:34:10;;;;;;;5.88;5.68;;;;;;;11.45;100.00;101170.72;5058103;28;20056;-61
2022/04/28 00:36:36;;;;;;;5.90;5.70;;;;;;;11.39;100.00;101177.53;5053010;28;20033;-60
2022/04/28 00:39:02;;;;;;;6.03;5.82;;;;;;;11.59;100.00;101167.41;5051991;28;20040;-61
2022/04/28 00:41:27;;;;;;;6.63;6.32;;;;;;;11.54;100.00;101170.56;5052298;28;20452;-62
2022/04/28 00:43:54;;;;;;;6.30;6.00;;;;;;;11.51;100.00;101172.72;5055121;28;20100;-61
2022/04/28 00:46:20;;;;;;;6.00;5.80;;;;;;;11.30;100.00;101167.88;5053767;28;20020;-61
2022/04/28 00:51:31;;;;;;;5.70;5.50;;;;;;;11.38;100.00;101170.53;5053925;28;20040;-60
2022/04/28 00:53:59;;;;;;;6.40;6.10;;;;;;;11.18;100.00;101159.41;5052551;28;20480;-61
2022/04/28 00:56:26;;;;;;;5.97;5.78;;;;;;;11.26;100.00;101164.72;5052441;28;20029;-61
2022/04/28 00:58:54;;;;;;;6.47;6.18;;;;;;;11.22;100.00;101155.41;5049669;28;20068;-61
2022/04/28 01:01:19;;;;;;;6.05;5.85;;;;;;;11.21;100.00;101156.41;5046135;28;20510;-60
2022/04/28 01:03:46;;;;;;;6.30;6.00;;;;;;;11.09;100.00;101147.13;5059013;28;20048;-61
2022/04/28 01:06:12;;;;;;;6.20;5.90;;;;;;;11.14;100.00;101139.47;5053760;28;20039;-60
2022/04/28 01:08:39;;;;;;;6.50;6.20;;;;;;;11.09;100.00;101141.81;5053029;28;20078;-60
2022/04/28 01:11:04;;;;;;;6.90;6.60;;;;;;;11.14;100.00;101138.63;5036820;28;20027;-60
2022/04/28 01:13:31;;;;;;;6.15;5.85;;;;;;;11.06;100.00;101150.91;5050829;28;20035;-61
2022/04/28 01:15:56;;;;;;;6.30;6.00;;;;;;;11.07;100.00;101138.47;5053322;28;20029;-60
2022/04/28 01:18:22;;;;;;;6.25;5.95;;;;;;;11.10;100.00;101134.66;5053118;28;20078;-61
2022/04/28 01:20:48;;;;;;;6.47;6.18;;;;;;;11.04;100.00;101126.34;5053489;28;20491;-60
2022/04/28 01:23:13;;;;;;;6.38;6.07;;;;;;;11.03;100.00;101131.81;5051149;28;20142;-61
2022/04/28 01:25:39;;;;;;;5.90;5.70;;;;;;;10.95;100.00;101127.34;5049527;28;20052;-61
2022/04/28 01:28:04;;;;;;;6.40;6.10;;;;;;;10.96;100.00;101129.00;5045601;28;20033;-61
2022/04/28 01:30:30;;;;;;;6.40;6.10;;;;;;;10.96;100.00;101129.00;5052441;28;20536;-60
2022/04/28 01:32:57;;;;;;;6.43;6.13;;;;;;;10.92;100.00;101134.78;5059731;28;20426;-61
2022/04/28 01:35:24;;;;;;;6.53;6.22;;;;;;;10.90;100.00;101126.16;5058411;28;20104;-62
2022/04/28 01:37:49;;;;;;;6.30;6.00;;;;;;;10.92;100.00;101113.53;5051926;28;20024;-61
2022/04/28 01:40:16;;;;;;;6.32;6.03;;;;;;;10.85;100.00;101115.19;5041019;28;20503;-60
2022/04/28 01:42:46;;;;;;;6.10;5.85;;;;;;;10.84;100.00;101108.22;5051663;28;20020;-61
2022/04/28 01:45:12;;;;;;;6.65;6.35;;;;;;;10.83;100.00;101106.56;5050515;28;20040;-61
2022/04/28 01:47:39;;;;;;;6.10;5.90;;;;;;;10.81;100.00;101095.28;5052820;28;20021;-60
2022/04/28 01:50:05;;;;;;;6.10;5.85;;;;;;;10.74;100.00;101092.44;5052450;28;20107;-60
2022/04/28 01:55:15;;;;;;;6.07;5.85;;;;;;;10.71;100.00;101077.66;5050885;28;20082;-60
2022/04/28 01:57:41;;;;;;;6.22;5.95;;;;;;;10.70;100.00;101078.66;5052275;28;20049;-61
2022/04/28 02:00:08;;;;;;;6.20;5.90;;;;;;;10.78;100.00;101070.69;5052571;28;20025;-60
2022/04/28 02:02:34;;;;;;;6.20;5.93;;;;;;;10.73;100.00;101083.66;5050621;28;20060;-60
2022/04/28 02:05:01;;;;;;;6.40;6.10;;;;;;;10.74;100.00;101076.50;5052224;28;20027;-60
2022/04/28 02:07:28;;;;;;;5.90;5.70;;;;;;;10.70;100.00;101072.50;5050325;28;20025;-60
2022/04/28 02:09:54;;;;;;;6.30;6.00;;;;;;;10.76;100.00;101093.94;5047030;28;20079;-60
2022/04/28 02:12:20;;;;;;;6.03;5.82;;;;;;;10.73;100.00;101094.25;5052118;28;20027;-60
2022/04/28 02:14:46;;;;;;;6.07;5.88;;;;;;;10.68;100.00;101098.38;5052171;28;20116;-60
2022/04/28 02:17:16;;;;;;;6.50;6.20;;;;;;;10.67;100.00;101100.22;5044776;28;20033;-60
2022/04/28 02:19:41;;;;;;;6.32;6.03;;;;;;;10.70;100.00;101118.44;5045113;28;20029;-61
2022/04/28 02:22:07;;;;;;;5.80;5.60;;;;;;;10.77;100.00;101116.00;5041978;28;20024;-60
2022/04/28 02:24:32;;;;;;;6.60;6.30;;;;;;;10.76;100.00;101116.97;5048413;28;20033;-60
2022/04/28 02:26:58;;;;;;;6.25;5.95;;;;;;;10.81;100.00;101127.13;5055302;28;20039;-62
2022/04/28 02:29:23;;;;;;;6.15;5.90;;;;;;;10.82;100.00;101118.16;5052227;28;20024;-61
2022/04/28 02:31:49;;;;;;;5.93;5.72;;;;;;;10.85;100.00;101123.13;5052235;28;20029;-61
2022/04/28 02:34:14;;;;;;;6.30;6.00;;;;;;;10.82;100.00;101119.00;5052153;28;20399;-61
2022/04/28 02:36:40;;;;;;;6.00;5.80;;;;;;;10.87;100.00;101123.81;5035284;28;20079;-60
2022/04/28 02:39:05;;;;;;;6.00;5.80;;;;;;;10.79;100.00;101128.09;5041522;28;20052;-60
2022/04/28 02:41:31;;;;;;;6.55;6.25;;;;;;;10.84;100.00;101134.75;5052033;28;20017;-61
2022/04/28 02:43:56;;;;;;;6.30;6.00;;;;;;;10.81;100.00;101135.09;5052722;28;20013;-61
2022/04/28 02:46:22;;;;;;;6.40;6.10;;;;;;;10.79;100.00;101133.41;5051695;28;20061;-60
2022/04/28 02:48:49;;;;;;;6.10;5.85;;;;;;;10.82;100.00;101147.38;5044149;28;20025;-61
2022/04/28 02:51:15;;;;;;;5.97;5.78;;;;;;;10.81;100.00;101140.41;5044213;28;20403;-61
2022/04/28 02:53:41;;;;;;;6.32;6.03;;;;;;;10.77;100.00;101135.41;5050126;28;20032;-61
2022/04/28 02:56:06;;;;;;;6.40;6.10;;;;;;;10.81;100.00;101145.72;5051478;28;20104;-61
2022/04/28 02:58:34;;;;;;;6.50;6.20;;;;;;;10.83;100.00;101143.72;5051148;28;20059;-60
2022/04/28 03:01:00;;;;;;;6.65;6.35;;;;;;;10.84;100.00;101143.53;5052374;28;20075;-60
2022/04/28 03:03:26;;;;;;;6.22;5.93;;;;;;;10.76;100.00;101144.34;5050651;28;20024;-61
2022/04/28 03:11:20;;;;;;;6.30;6.00;;;;;;;10.73;100.00;101142.03;5044783;28;20503;-61
2022/04/28 03:13:45;;;;;;;6.28;5.97;;;;;;;10.77;100.00;101150.50;5055329;28;20033;-61
2022/04/28 03:16:11;;;;;;;6.20;5.90;;;;;;;10.83;100.00;101143.72;5054236;28;20024;-61
2022/04/28 03:18:37;;;;;;;6.50;6.20;;;;;;;10.82;100.00;101136.75;5058396;28;20017;-61
2022/04/28 03:21:05;;;;;;;6.00;5.80;;;;;;;10.81;100.00;101151.00;5052877;28;20032;-61
2022/04/28 03:23:31;;;;;;;5.65;5.45;;;;;;;10.82;100.00;101153.50;5053788;28;20033;-60
2022/04/28 03:25:56;;;;;;;6.00;5.80;;;;;;;10.76;100.00;101154.97;5054250;28;21026;-60
2022/04/28 03:28:22;;;;;;;6.40;6.10;;;;;;;10.84;100.00;101154.16;5055260;28;20077;-62
2022/04/28 03:30:49;;;;;;;5.82;5.63;;;;;;;10.76;100.00;101160.28;5054201;28;20079;-61
2022/04/28 03:33:15;;;;;;;6.25;5.95;;;;;;;10.77;100.00;101161.94;5052254;28;20483;-60
2022/04/28 03:35:42;;;;;;;6.28;5.97;;;;;;;10.81;100.00;101170.41;5051202;28;20115;-62
2022/04/28 03:38:12;;;;;;;6.63;6.32;;;;;;;10.79;100.00;101169.72;5054962;28;20116;-60
2022/04/28 03:40:41;;;;;;;5.95;5.75;;;;;;;10.88;100.00;101174.09;5053873;28;20365;-60
2022/04/28 03:43:06;;;;;;;6.20;5.90;;;;;;;10.91;100.00;101176.41;5053964;28;20036;-61
2022/04/28 03:45:33;;;;;;;6.60;6.30;;;;;;;10.84;100.00;101177.22;5050084;28;20021;-61
2022/04/28 03:48:00;;;;;;;6.80;6.50;;;;;;;10.87;100.00;101169.78;5044613;28;20040;-61
2022/04/28 03:50:28;;;;;;;6.60;6.30;;;;;;;10.84;100.00;101159.47;5049614;28;20029;-60
2022/04/28 03:52:54;;;;;;;6.70;6.40;;;;;;;10.86;100.00;101161.97;5055249;28;20032;-61
2022/04/28 03:55:20;;;;;;;6.05;5.82;;;;;;;10.84;100.00;101174.56;5054743;28;20017;-61
2022/04/28 03:57:46;;;;;;;6.43;6.13;;;;;;;10.95;100.00;101179.59;5054301;28;20079;-61
2022/04/28 04:00:12;;;;;;;6.63;6.32;;;;;;;10.97;100.00;101181.09;5045915;28;20492;-62
2022/04/28 04:02:37;;;;;;;6.30;6.00;;;;;;;10.91;100.00;101180.91;5049264;28;20017;-61
2022/04/28 04:05:03;;;;;;;6.30;6.00;;;;;;;10.95;100.00;101188.38;5049333;28;20033;-61
2022/04/28 04:07:31;;;;;;;6.63;6.32;;;;;;;10.96;100.00;101189.22;5045990;28;20028;-61
2022/04/28 04:09:57;;;;;;;5.95;5.75;;;;;;;11.07;100.00;101188.91;5054838;28;20029;-61
2022/04/28 04:12:22;;;;;;;6.20;5.90;;;;;;;11.07;100.00;101194.22;5049510;28;20029;-61
2022/04/28 04:14:48;;;;;;;6.30;6.00;;;;;;;11.09;100.00;101200.22;5046441;28;20025;-61
2022/04/28 04:17:14;;;;;;;6.30;6.00;;;;;;;11.03;100.00;101201.69;5052692;28;20050;-61
2022/04/28 04:19:39;;;;;;;6.78;6.47;;;;;;;11.13;100.00;101187.44;5052571;28;20025;-61
2022/04/28 04:22:05;;;;;;;6.40;6.10;;;;;;;11.25;100.00;101199.44;5038483;28;20088;-60
2022/04/28 04:24:30;;;;;;;6.45;6.15;;;;;;;11.25;100.00;101200.25;5045645;28;20020;-61
2022/04/28 04:26:58;;;;;;;6.47;6.18;;;;;;;11.16;100.00;101197.72;5054408;28;20037;-62
2022/04/28 04:29:23;;;;;;;6.60;6.30;;;;;;;11.00;100.00;101185.22;5046687;28;20075;-62
2022/04/28 04:34:33;;;;;;;6.68;6.38;;;;;;;11.14;100.00;101191.75;5045516;28;20121;-62
2022/04/28 04:36:58;;;;;;;6.40;6.10;;;;;;;11.16;100.00;101190.56;5050161;28;20128;-62
2022/04/28 04:39:24;;;;;;;6.60;6.30;;;;;;;11.13;100.00;101198.06;5051841;28;20468;-61
2022/04/28 04:41:49;;;;;;;6.57;6.28;;;;;;;11.26;100.00;101188.63;5057394;28;20050;-61
2022/04/28 04:44:15;;;;;;;6.18;5.93;;;;;;;11.42;100.00;101187.00;5047389;28;20025;-60
2022/04/28 04:46:42;;;;;;;6.30;6.00;;;;;;;11.40;100.00;101189.00;5062227;28;20052;-62
2022/04/28 04:49:08;;;;;;;6.40;6.10;;;;;;;11.38;100.00;101190.97;5043947;28;20021;-61
2022/04/28 04:51:34;;;;;;;6.40;6.10;;;;;;;11.55;100.00;101192.66;5050147;28;20029;-60
2022/04/28 04:54:01;;;;;;;6.60;6.30;;;;;;;11.52;100.00;101196.47;5056049;28;20032;-61
2022/04/28 04:56:26;;;;;;;7.97;7.57;;;;;;;11.61;100.00;101198.16;5038972;28;20123;-62
2022/04/28 04:58:52;;;;;;;6.20;5.90;;;;;;;11.68;100.00;101195.66;5055982;28;20129;-61
2022/04/28 05:01:17;;;;;;;6.18;5.90;;;;;;;11.60;100.00;101198.28;5045300;28;20025;-61
2022/04/28 05:03:43;;;;;;;6.00;5.80;;;;;;;11.72;100.00;101186.34;5059470;28;20103;-61
2022/04/28 05:06:08;;;;;;;6.97;6.68;;;;;;;11.59;100.00;101191.31;5069308;28;20086;-61
2022/04/28 05:08:34;;;;;;;5.97;5.78;;;;;;;11.57;100.00;101185.34;5049603;28;20025;-62
2022/04/28 05:11:00;;;;;;;6.57;6.28;;;;;;;11.69;100.00;101193.84;5048174;28;20029;-62
2022/04/28 05:13:25;;;;;;;6.40;6.10;;;;;;;11.63;100.00;101184.69;5054057;28;20085;-61
2022/04/28 05:15:51;;;;;;;6.40;6.10;;;;;;;11.45;100.00;101182.16;5054129;28;20035;-61
2022/04/28 05:18:16;;;;;;;6.40;6.10;;;;;;;11.55;100.00;101185.53;5051938;28;20025;-61
2022/04/28 05:20:42;;;;;;;5.97;5.78;;;;;;;11.62;100.00;101189.19;5057842;28;20028;-60
2022/04/28 05:23:07;;;;;;;6.40;6.10;;;;;;;11.75;100.00;101186.03;5051190;28;20060;-62
2022/04/28 05:25:33;;;;;;;6.15;5.93;;;;;;;11.82;100.00;101187.03;5061805;28;20024;-61
2022/04/28 05:27:59;;;;;;;6.57;6.28;;;;;;;11.57;100.00;101188.84;5061531;28;20029;-61
2022/04/28 05:30:24;;;;;;;6.50;6.20;;;;;;;11.51;100.00;101189.50;5049725;28;20040;-61
2022/04/28 05:32:50;;;;;;;7.03;6.72;;;;;;;11.80;100.00;101177.53;5044273;28;20032;-61
2022/04/28 05:35:16;;;;;;;6.50;6.20;;;;;;;11.61;100.00;101192.00;5064806;28;20042;-62
2022/04/28 05:37:41;;;;;;;6.30;6.00;;;;;;;11.85;100.00;101193.88;5060744;28;20074;-61
2022/04/28 05:40:09;;;;;;;6.80;6.50;;;;;;;11.67;100.00;101201.94;5045301;28;20024;-61
2022/04/28 05:48:04;;;;;;;6.43;6.13;;;;;;;12.02;100.00;101208.81;5056031;28;20040;-62
2022/04/28 05:50:29;;;;;;;6.20;5.93;;;;;;;12.08;100.00;101221.44;5043653;28;20029;-60
2022/04/28 05:52:55;;;;;;;6.75;6.45;;;;;;;12.33;100.00;101230.22;5053337;28;20052;-61
2022/04/28 05:55:21;;;;;;;6.28;5.97;;;;;;;12.42;100.00;101225.72;5053194;28;20028;-61
2022/04/28 05:57:46;;;;;;;5.90;5.70;;;;;;;12.61;100.00;101235.16;5059148;28;20044;-61
2022/04/28 06:00:12;;;;;;;6.75;6.45;;;;;;;12.78;100.00;101228.78;5051418;28;20044;-61
2022/04/28 06:02:38;;;;;;;6.38;6.07;;;;;;;12.53;100.00;101237.81;5057344;28;20048;-61
2022/04/28 06:05:04;;;;;;;6.40;6.10;;;;;;;12.39;100.00;101240.19;5051174;28;20102;-63
2022/04/28 06:07:29;;;;;;;6.82;6.53;;;;;;;12.21;100.00;101236.91;5054237;28;20364;-62
2022/04/28 06:09:55;;;;;;;6.93;6.63;;;;;;;12.06;100.00;101227.94;5052641;28;20041;-62
2022/04/28 06:12:20;;;;;;;6.50;6.20;;;;;;;12.16;100.00;101231.25;5047480;28;20078;-62
2022/04/28 06:14:48;;;;;;;6.50;6.20;;;;;;;12.30;100.00;101235.03;5044318;28;20195;-62
2022/04/28 06:17:13;;;;;;;6.60;6.30;;;;;;;12.32;100.00;101244.50;5061892;28;20124;-62
2022/04/28 06:19:39;;;;;;;6.50;6.20;;;;;;;12.10;100.00;101247.84;5052545;28;20020;-62
2022/04/28 06:22:04;;;;;;;6.75;6.45;;;;;;;12.26;100.00;101250.50;5058321;28;20039;-62
2022/04/28 06:24:30;;;;;;;6.00;5.80;;;;;;;12.17;100.00;101256.84;5060131;28;20038;-63
2022/04/28 06:26:55;;;;;;;6.50;6.20;;;;;;;12.25;100.00;101261.31;5056951;28;20030;-63
2022/04/28 06:29:21;;;;;;;6.95;6.65;;;;;;;12.27;100.00;101264.66;5054163;28;20029;-63
2022/04/28 06:31:46;;;;;;;6.40;6.10;;;;;;;12.26;100.00;101260.31;5051939;28;20035;-62
2022/04/28 06:34:12;;;;;;;6.00;5.80;;;;;;;12.16;100.00;101257.84;5050932;28;20246;-62
2022/04/28 06:36:37;;;;;;;6.05;5.82;;;;;;;12.23;100.00;101269.47;5053724;28;20470;-64
2022/04/28 06:39:03;;;;;;;6.65;6.35;;;;;;;12.31;100.00;101266.81;5057465;28;20037;-64
2022/04/28 06:41:29;;;;;;;6.18;5.90;;;;;;;12.38;100.00;101264.31;5049961;28;20033;-62
2022/04/28 06:43:55;;;;;;;6.40;6.10;;;;;;;12.35;100.00;101268.13;5056713;28;20020;-62
2022/04/28 06:46:22;;;;;;;6.15;5.90;;;;;;;12.60;100.00;101258.28;5052676;28;20079;-62
2022/04/28 06:48:48;;;;;;;6.60;6.30;;;;;;;12.23;100.00;101250.03;5048554;28;20029;-63
2022/04/28 06:51:14;;;;;;;7.63;7.32;;;;;;;12.17;100.00;101235.56;5051742;28;20036;-62
2022/04/28 06:53:40;;;;;;;6.85;6.55;;;;;;;12.23;100.00;101234.88;5065214;28;20017;-62
2022/04/28 06:56:06;;;;;;;6.32;6.03;;;;;;;12.17;100.00;101232.91;5067897;28;20024;-63
2022/04/28 06:58:32;;;;;;;6.60;6.30;;;;;;;12.45;100.00;101238.69;5053115;28;20044;-62
2022/04/28 07:00:58;;;;;;;6.15;5.90;;;;;;;12.59;100.00;101251.28;5047367;28;20021;-63
2022/04/28 07:03:24;;;;;;;6.57;6.28;;;;;;;12.55;100.00;101260.59;5047122;28;20031;-63
2022/04/28 07:05:50;;;;;;;6.35;6.05;;;;;;;12.61;100.00;101270.56;5048093;28;20020;-62
2022/04/28 07:08:15;;;;;;;8.50;8.10;;;;;;;12.80;100.00;101268.56;5043718;28;20040;-65
2022/04/28 07:10:41;;;;;;;7.00;6.70;;;;;;;13.09;100.00;101278.59;5038861;28;20433;-63
2022/04/28 07:13:07;;;;;;;6.60;6.30;;;;;;;12.89;100.00;101286.97;5055382;28;20036;-63
2022/04/28 07:15:38;;;;;;;6.32;6.03;;;;;;;12.45;100.00;101274.09;5057195;28;20031;-63
2022/04/28 07:18:04;;;;;;;6.53;6.22;;;;;;;12.21;100.00;101254.69;5052470;28;20492;-64
2022/04/28 07:20:34;;;;;;;6.55;6.25;;;;;;;12.27;100.00;101257.50;5045255;28;20078;-63
2022/04/28 07:22:59;;;;;;;6.68;6.38;;;;;;;12.46;100.00;101261.63;5051853;28;20031;-63
2022/04/28 07:25:30;;;;;;;6.40;6.10;;;;;;;12.12;100.00;101272.47;5047659;28;20120;-64
2022/04/28 07:27:56;;;;;;;6.22;5.95;;;;;;;12.30;100.00;101259.00;5049281;28;20100;-63
2022/04/28 07:30:23;;;;;;;6.72;6.43;;;;;;;12.76;100.00;101265.38;5040374;28;20025;-65
2022/04/28 07:32:51;;;;;;;6.90;6.60;;;;;;;12.92;100.00;101286.63;5045817;28;20029;-65
2022/04/28 07:35:19;;;;;;;6.45;6.15;;;;;;;12.85;100.00;101272.38;5042184;28;20097;-65
2022/04/28 07:37:45;;;;;;;6.88;6.57;;;;;;;12.45;100.00;101273.28;5042114;28;20017;-65
2022/04/28 07:40:11;;;;;;;6.07;5.88;;;;;;;12.77;100.00;101279.53;5049565;28;20025;-65
2022/04/28 07:42:37;;;;;;;6.25;5.97;;;;;;;12.26;100.00;101258.47;5040303;28;20078;-65
2022/04/28 07:45:04;;;;;;;6.65;6.35;;;;;;;12.77;100.00;101268.88;5040104;28;20029;-64
2022/04/28 07:47:29;;;;;;;6.60;6.30;;;;;;;13.07;100.00;101270.75;5042701;28;20043;-63
2022/04/28 07:49:55;;;;;;;6.78;6.47;;;;;;;12.49;100.00;101266.63;5048377;28;20021;-63
2022/04/28 07:52:21;;;;;;;6.05;5.85;;;;;;;12.62;100.00;101266.09;5058385;28;20107;-64
2022/04/28 07:54:46;;;;;;;7.20;6.90;;;;;;;12.19;100.00;101268.13;5062083;28;20032;-64
2022/04/28 07:57:13;;;;;;;6.25;5.97;;;;;;;12.59;100.00;101256.63;5044332;28;20052;-64
2022/04/28 07:59:39;;;;;;;6.70;6.40;;;;;;;12.52;100.00;101266.28;5063874;28;20054;-63
2022/04/28 08:02:06;;;;;;;6.57;6.28;;;;;;;12.67;100.00;101274.41;5040988;28;20037;-64
2022/04/28 08:04:32;;;;;;;6.65;6.35;;;;;;;12.64;100.00;101274.75;5058478;28;20025;-65
2022/04/28 08:06:58;;;;;;;7.15;6.85;;;;;;;12.41;100.00;101267.47;5055906;28;20057;-65
2022/04/28 08:09:24;;;;;;;6.60;6.30;;;;;;;12.57;100.00;101268.44;5052849;28;20043;-64
2022/04/28 08:11:50;;;;;;;6.30;6.00;;;;;;;12.71;100.00;101273.91;5045769;28;20029;-64
2022/04/28 08:14:16;;;;;;;6.57;6.28;;;;;;;12.55;100.00;101271.25;5051650;28;20510;-63
2022/04/28 08:16:41;;;;;;;6.60;6.30;;;;;;;12.43;100.00;101272.63;5053773;28;20032;-64
2022/04/28 08:19:09;;;;;;;6.68;6.38;;;;;;;12.31;100.00;101274.78;5060344;28;20029;-64
2022/04/28 08:21:35;;;;;;;6.40;6.10;;;;;;;12.39;100.00;101264.13;5055855;28;20491;-64
2022/04/28 08:24:00;;;;;;;6.72;6.43;;;;;;;12.29;100.00;101279.44;5064404;28;20024;-64
2022/04/28 08:26:26;;;;;;;6.28;5.97;;;;;;;12.25;100.00;101272.78;5053926;28;20399;-63
2022/04/28 08:28:52;;;;;;;7.07;6.78;;;;;;;11.84;100.00;101291.41;5067833;28;20439;-65
2022/04/28 08:31:19;;;;;;;6.80;6.50;;;;;;;11.96;100.00;101286.56;5039899;28;20991;-65
2022/04/28 08:33:44;;;;;;;6.88;6.57;;;;;;;12.09;100.00;101283.44;5061300;28;20036;-65
2022/04/28 08:36:10;;;;;;;6.80;6.50;;;;;;;12.04;100.00;101275.13;5051927;28;20099;-63
2022/04/28 08:38:35;;;;;;;6.35;6.05;;;;;;;12.21;100.00;101274.13;5054472;28;20033;-63
2022/04/28 08:41:03;;;;;;;6.65;6.35;;;;;;;12.18;100.00;101280.59;5045111;28;20029;-65
2022/04/28 08:43:31;;;;;;;6.07;5.88;;;;;;;12.11;100.00;101282.25;5057754;28;20523;-64
2022/04/28 08:48:53;;;;;;;6.70;6.40;;;;;;;11.92;100.00;101273.78;5048472;28;20120;-63
2022/04/28 08:51:26;;;;;;;6.47;6.18;;;;;;;12.01;100.00;101270.97;5049279;28;20116;-65
2022/04/28 08:53:53;;;;;;;8.02;7.63;;;;;;;12.28;100.00;101274.31;5041021;28;20024;-63
2022/04/28 08:56:20;;;;;;;6.30;6.00;;;;;;;11.69;100.00;101294.84;5062497;28;20388;-65
2022/04/28 08:58:47;;;;;;;7.28;6.97;;;;;;;11.77;100.00;101269.09;5053366;28;20049;-65
2022/04/28 09:01:13;;;;;;;6.10;5.88;;;;;;;11.70;100.00;101264.59;5053451;28;20143;-64
2022/04/28 09:03:41;;;;;;;6.50;6.20;;;;;;;11.81;100.00;101264.31;5053294;28;20028;-64
2022/04/28 09:06:20;;;;;;;6.75;6.45;;;;;;;11.77;100.00;101273.59;5051476;28;20166;-64
2022/04/28 09:08:47;;;;;;;7.38;7.07;;;;;;;11.78;100.00;101275.25;5056302;28;20115;-65
2022/04/28 09:11:20;;;;;;;6.50;6.20;;;;;;;11.84;100.00;101266.66;5047640;28;20020;-65
2022/04/28 09:16:41;;;;;;;6.43;6.13;;;;;;;11.56;100.00;101256.28;5051710;28;20059;-65
2022/04/28 09:19:08;;;;;;;6.80;6.50;;;;;;;11.67;100.00;101263.09;5061744;28;20115;-64
2022/04/28 09:21:35;;;;;;;6.50;6.20;;;;;;;11.65;100.00;101269.56;5049377;28;20075;-64
2022/04/28 09:24:02;;;;;;;6.30;6.00;;;;;;;11.68;100.00;101266.56;5036170;28;20108;-64
2022/04/28 09:26:29;;;;;;;6.97;6.68;;;;;;;11.65;100.00;101272.22;5044245;28;20036;-64
2022/04/28 09:28:55;;;;;;;7.03;6.72;;;;;;;11.59;100.00;101281.66;5062638;28;20029;-65
2022/04/28 09:31:23;;;;;;;6.85;6.55;;;;;;;11.62;100.00;101281.38;5050238;28;20075;-65
2022/04/28 09:33:49;;;;;;;6.50;6.20;;;;;;;11.84;100.00;101283.44;5053704;28;20037;-65
2022/04/28 09:36:15;;;;;;;6.50;6.20;;;;;;;11.70;100.00;101292.00;5054900;28;20526;-65
2022/04/28 09:38:40;;;;;;;6.88;6.57;;;;;;;11.56;100.00;101288.16;5044325;28;20040;-70
2022/04/28 09:43:55;;;;;;;6.90;6.60;;;;;;;11.72;100.00;101289.19;5043644;28;20082;-64
2022/04/28 09:46:25;;;;;;;6.75;6.45;;;;;;;11.54;100.00;101286.66;5057303;28;20530;-63
2022/04/28 09:48:52;;;;;;;6.72;6.43;;;;;;;11.52;100.00;101291.28;5045179;28;20034;-64
2022/04/28 09:51:25;;;;;;;7.00;6.70;;;;;;;11.37;100.00;101296.38;5051267;28;20043;-64
2022/04/28 09:53:51;;;;;;;6.80;6.50;;;;;;;11.41;100.00;101300.41;5051830;28;20029;-64
2022/04/28 09:56:28;;;;;;;7.25;6.95;;;;;;;11.60;100.00;101300.13;5051666;28;20047;-64
2022/04/28 09:58:55;;;;;;;7.28;6.97;;;;;;;11.64;100.00;101300.63;5048226;28;20048;-64
2022/04/28 10:01:21;;;;;;;6.85;6.55;;;;;;;11.67;100.00;101302.13;5050381;28;20484;-63
2022/04/28 10:03:47;;;;;;;6.70;6.40;;;;;;;11.60;100.00;101312.56;5055405;28;20040;-64
2022/04/28 10:06:12;;;;;;;7.20;6.90;;;;;;;11.79;100.00;101314.94;5054544;28;20508;-64
2022/04/28 10:08:38;;;;;;;7.20;6.90;;;;;;;11.69;100.00;101311.63;5045120;28;20061;-64
2022/04/28 10:11:06;;;;;;;6.88;6.57;;;;;;;11.77;100.00;101310.81;5046266;28;20028;-64
2022/04/28 10:13:32;;;;;;;6.88;6.57;;;;;;;11.74;100.00;101309.28;5053071;28;20029;-65
2022/04/28 10:16:02;;;;;;;6.68;6.38;;;;;;;11.62;100.00;101315.91;5049204;28;20024;-64
2022/04/28 10:18:44;;;;;;;7.88;7.47;;;;;;;11.91;100.00;101320.00;5053480;28;20029;-61
2022/04/28 10:21:14;;;;;;;6.80;6.50;;;;;;;11.83;100.00;101340.25;5043507;28;20070;-65
2022/04/28 10:35:07;;;;;;;7.43;7.13;;;;;;;11.74;100.00;101335.84;5043265;28;20040;-63
2022/04/28 10:37:36;;;;;;;7.55;7.22;;;;;;;11.61;100.00;101356.78;5040209;28;20033;-64
2022/04/28 10:40:03;;;;;;;8.05;7.65;;;;;;;11.48;100.00;101351.06;5046160;28;20040;-63
2022/04/28 10:42:29;;;;;;;7.05;6.75;;;;;;;11.61;100.00;101339.00;5054802;28;20031;-64
2022/04/28 10:44:57;;;;;;;6.43;6.13;;;;;;;11.54;100.00;101342.47;5051266;28;20383;-65
2022/04/28 10:47:37;;;;;;;7.05;6.75;;;;;;;11.45;100.00;101336.25;5044878;28;20439;-64
2022/04/28 10:50:23;;;;;;;8.13;7.72;;;;;;;11.61;100.00;101341.66;5046081;28;20089;-64
2022/04/28 10:53:05;;;;;;;6.50;6.20;;;;;;;11.49;100.00;101342.94;5060669;28;20043;-63
2022/04/28 10:55:50;;;;;;;7.50;7.20;;;;;;;11.71;100.00;101346.00;5054518;28;20032;-66
2022/04/28 10:58:22;;;;;;;6.55;6.25;;;;;;;11.49;100.00;101347.41;5044090;28;20041;-62
2022/04/28 11:00:57;;;;;;;7.22;6.93;;;;;;;11.58;100.00;101341.97;5050742;28;20036;-64
2022/04/28 11:03:54;;;;;;;6.90;6.60;;;;;;;11.53;100.00;101338.97;5041615;28;20025;-64
2022/04/28 11:06:19;;;;;;;7.20;6.90;;;;;;;11.44;100.00;101347.06;5042432;28;20033;-65
2022/04/28 11:08:50;;;;;;;6.50;6.20;;;;;;;11.38;100.00;101343.22;5041822;28;20124;-65
2022/04/28 11:11:16;;;;;;;6.80;6.50;;;;;;;11.46;100.00;101347.75;5043066;28;20022;-63
2022/04/28 11:13:46;;;;;;;7.18;6.88;;;;;;;11.41;100.00;101342.09;5046246;28;20020;-62
2022/04/28 11:16:12;;;;;;;6.70;6.40;;;;;;;11.40;100.00;101335.09;5053017;28;20400;-63
2022/04/28 11:18:39;;;;;;;6.60;6.30;;;;;;;11.34;100.00;101339.22;5061342;28;20017;-64
2022/04/28 11:21:05;;;;;;;6.63;6.32;;;;;;;11.25;100.00;101342.84;5053819;28;20149;-62
2022/04/28 11:23:33;;;;;;;7.32;7.03;;;;;;;11.27;100.00;101333.72;5051842;28;20118;-64
2022/04/28 11:25:59;;;;;;;7.30;7.00;;;;;;;11.25;100.00;101345.50;5044612;28;20462;-64
2022/04/28 11:28:26;;;;;;;6.97;6.68;;;;;;;11.15;100.00;101337.63;5053725;28;20029;-63
2022/04/28 11:30:52;;;;;;;6.88;6.57;;;;;;;11.22;100.00;101340.50;5052624;28;20033;-64
2022/04/28 11:33:21;;;;;;;6.70;6.40;;;;;;;11.26;100.00;101336.53;5055800;28;20059;-65
2022/04/28 11:35:46;;;;;;;7.00;6.70;;;;;;;11.22;100.00;101335.19;5059586;28;20053;-63
2022/04/28 11:38:12;;;;;;;7.00;6.70;;;;;;;11.14;100.00;101335.97;5056911;28;20104;-65
2022/04/28 11:40:39;;;;;;;6.70;6.40;;;;;;;11.10;100.00;101334.63;5058255;28;20032;-66
2022/04/28 11:43:06;;;;;;;6.38;6.07;;;;;;;11.23;100.00;101326.22;5051031;28;20535;-64
2022/04/28 11:45:32;;;;;;;6.75;6.45;;;;;;;11.12;100.00;101324.69;5049056;28;20037;-64
2022/04/28 11:48:00;;;;;;;6.85;6.55;;;;;;;11.02;100.00;101327.47;5054364;28;20028;-64
2022/04/28 11:50:30;;;;;;;6.80;6.50;;;;;;;11.16;100.00;101319.88;5053914;28;20024;-63
2022/04/28 11:53:11;;;;;;;6.75;6.45;;;;;;;11.13;100.00;101313.06;5061875;28;20029;-63